Time;durP1;ratioP1;P1;durP2;ratioP2;P2;SDS_P1;SDS_P2;PMS_P1;PMS_P2;Temp;Humidity;BMP_temperature;BMP_pressure;BME280_temperature;BME280_humidity;BME280_pressure;Samples;Min_cycle;Max_cycle;Signal;HPM_P1;HPM_P2
2023/10/30 00:02:07;;;;;;;3.80;1.40;;;;;;;20.92;52.69;102029.90;107136;1254;25356;-59
2023/10/30 00:04:34;;;;;;;2.80;1.00;;;;;;;20.91;52.88;102025.72;107137;1264;25337;-58
2023/10/30 00:07:01;;;;;;;1.60;1.00;;;;;;;20.88;52.99;102023.74;107208;1263;25401;-58
2023/10/30 00:09:28;;;;;;;2.30;1.40;;;;;;;20.66;53.78;102026.85;107154;1263;25501;-57
2023/10/30 00:11:55;;;;;;;3.30;1.40;;;;;;;20.60;54.07;102029.73;107153;1253;25406;-58
2023/10/30 00:14:22;;;;;;;3.30;1.70;;;;;;;20.65;53.97;102032.88;107105;1272;22640;-57
2023/10/30 00:16:49;;;;;;;1.60;1.50;;;;;;;20.62;53.49;102034.42;106882;1267;25459;-59
2023/10/30 00:19:16;;;;;;;2.20;1.30;;;;;;;20.52;53.53;102029.41;107174;1267;25415;-59
2023/10/30 00:21:43;;;;;;;1.90;1.30;;;;;;;20.34;54.17;102023.50;107003;1260;25412;-57
2023/10/30 00:24:10;;;;;;;2.70;1.50;;;;;;;20.32;54.47;102020.39;107067;1254;24206;-58
2023/10/30 00:26:38;;;;;;;2.10;1.00;;;;;;;20.27;54.93;102019.38;107215;1265;25410;-58
2023/10/30 00:29:05;;;;;;;1.70;1.10;;;;;;;20.06;55.75;102018.30;107153;1264;22643;-58
2023/10/30 00:31:32;;;;;;;2.00;1.20;;;;;;;20.01;56.40;102022.56;107199;1250;25484;-60
2023/10/30 00:33:59;;;;;;;3.60;1.60;;;;;;;20.06;56.63;102022.52;107146;1264;24229;-57
2023/10/30 00:36:27;;;;;;;2.50;1.20;;;;;;;20.16;56.78;102020.16;107073;1267;25484;-61
2023/10/30 00:38:54;;;;;;;2.90;1.40;;;;;;;20.22;56.93;102016.40;107183;1253;22524;-57
2023/10/30 00:41:21;;;;;;;1.50;1.00;;;;;;;20.29;57.06;102017.54;107187;1267;23397;-65
2023/10/30 00:43:49;;;;;;;3.10;1.20;;;;;;;20.33;57.30;102016.30;107013;1263;25372;-59
2023/10/30 00:46:17;;;;;;;2.40;1.20;;;;;;;20.52;57.15;102014.27;106980;1260;25365;-63
2023/10/30 00:48:44;;;;;;;2.40;1.00;;;;;;;20.57;57.09;102015.42;106368;1263;1003355;-61
2023/10/30 00:51:11;;;;;;;3.80;1.40;;;;;;;20.57;57.36;102014.17;106945;1262;22751;-62
2023/10/30 00:53:38;;;;;;;4.90;1.80;;;;;;;20.57;57.44;102005.92;107055;1260;25415;-57
2023/10/30 00:56:05;;;;;;;2.40;1.60;;;;;;;20.62;57.56;102009.38;107152;1264;25407;-65
2023/10/30 00:58:33;;;;;;;2.60;1.20;;;;;;;20.65;57.81;102006.95;107200;1263;22530;-64
2023/10/30 01:01:00;;;;;;;3.00;1.40;;;;;;;20.68;57.90;102007.19;106838;1261;25347;-60
2023/10/30 01:03:27;;;;;;;4.50;1.60;;;;;;;20.70;58.08;102007.10;107124;1257;25320;-58
2023/10/30 01:05:58;;;;;;;3.10;1.40;;;;;;;20.72;58.34;102005.25;107130;1260;25428;-57
2023/10/30 01:08:26;;;;;;;3.50;1.40;;;;;;;20.74;58.59;102011.66;106983;1257;25337;-60
2023/10/30 01:10:56;;;;;;;4.80;2.50;;;;;;;20.74;58.87;102012.36;106934;1259;25392;-58
2023/10/30 01:13:24;;;;;;;2.40;1.30;;;;;;;20.78;59.08;102011.83;106807;1271;22530;-58
2023/10/30 01:15:53;;;;;;;2.50;1.70;;;;;;;20.82;59.27;102014.30;107260;1263;25847;-59
2023/10/30 01:18:20;;;;;;;2.70;1.50;;;;;;;20.87;59.57;102010.94;107143;1254;22538;-67
2023/10/30 01:20:47;;;;;;;3.50;1.40;;;;;;;20.91;59.69;102012.49;107113;1257;25396;-60
2023/10/30 01:23:15;;;;;;;2.40;2.00;;;;;;;20.93;59.90;102014.34;107197;1263;25405;-58
2023/10/30 01:25:42;;;;;;;3.90;1.60;;;;;;;20.97;60.05;102017.54;106935;1259;22645;-62
2023/10/30 01:28:09;;;;;;;4.20;1.70;;;;;;;20.99;60.20;102014.61;107185;1263;25414;-64
2023/10/30 01:30:36;;;;;;;3.90;1.50;;;;;;;21.01;60.39;102012.05;107192;1264;25365;-58
2023/10/30 01:33:03;;;;;;;1.50;1.20;;;;;;;21.03;60.41;102005.29;107131;1255;25356;-58
2023/10/30 01:35:30;;;;;;;2.20;1.30;;;;;;;21.06;60.57;102000.71;107179;1261;25337;-58
2023/10/30 01:37:58;;;;;;;3.00;1.50;;;;;;;21.12;60.65;102000.48;107230;1266;25494;-61
2023/10/30 01:40:25;;;;;;;2.70;1.30;;;;;;;21.14;60.76;102001.27;106911;1271;25363;-60
2023/10/30 01:42:54;;;;;;;3.00;1.40;;;;;;;21.17;61.14;102003.40;107152;1257;23025;-59
2023/10/30 01:45:21;;;;;;;2.00;1.50;;;;;;;21.21;61.58;102000.60;107129;1264;25362;-58
2023/10/30 01:47:48;;;;;;;2.70;1.20;;;;;;;21.25;61.89;102000.41;106874;1269;25494;-59
2023/10/30 01:50:16;;;;;;;1.60;1.30;;;;;;;21.28;62.15;102003.44;106732;1272;25335;-59
2023/10/30 01:52:43;;;;;;;3.60;1.50;;;;;;;21.33;62.37;102004.11;107098;1261;22547;-59
2023/10/30 01:55:10;;;;;;;3.30;1.40;;;;;;;21.35;62.46;102012.11;107240;1263;25339;-59
2023/10/30 01:57:37;;;;;;;3.10;1.20;;;;;;;21.38;62.54;102017.95;107091;1256;25337;-60
2023/10/30 02:00:05;;;;;;;2.00;1.30;;;;;;;21.42;62.69;102021.11;107071;1267;25472;-59
2023/10/30 02:02:39;;;;;;;1.80;1.20;;;;;;;21.45;62.71;102020.11;107096;1253;25354;-59
2023/10/30 02:05:08;;;;;;;2.30;1.20;;;;;;;21.47;62.78;102020.70;106903;1261;24399;-59
2023/10/30 02:07:36;;;;;;;3.30;1.40;;;;;;;21.49;62.83;102023.09;107165;1257;25337;-65
2023/10/30 02:10:04;;;;;;;3.50;1.40;;;;;;;21.52;62.75;102024.90;107176;1267;22660;-59
2023/10/30 02:12:34;;;;;;;2.50;1.20;;;;;;;21.55;62.68;102026.00;107144;1266;25425;-59
2023/10/30 02:15:03;;;;;;;2.50;1.30;;;;;;;21.58;62.62;102029.91;107145;1253;25389;-61
2023/10/30 02:17:30;;;;;;;2.70;1.40;;;;;;;21.59;62.66;102034.42;106728;1267;22579;-61
2023/10/30 02:19:57;;;;;;;2.50;1.50;;;;;;;21.60;62.51;102031.90;107003;1256;25328;-60
2023/10/30 02:22:24;;;;;;;2.40;1.10;;;;;;;21.62;62.55;102031.84;106992;1254;22658;-60
2023/10/30 02:24:51;;;;;;;2.40;1.30;;;;;;;21.63;62.59;102037.24;106561;1271;25341;-59
2023/10/30 02:27:18;;;;;;;2.90;1.20;;;;;;;21.65;62.55;102033.09;107220;1257;25417;-66
2023/10/30 02:29:45;;;;;;;4.60;1.40;;;;;;;21.67;62.49;102035.28;107214;1264;25348;-60
2023/10/30 02:32:12;;;;;;;4.50;1.60;;;;;;;21.67;62.44;102041.27;107002;1254;25497;-62
2023/10/30 02:34:39;;;;;;;2.30;1.60;;;;;;;21.68;62.38;102042.45;107231;1257;25327;-60
2023/10/30 02:37:06;;;;;;;3.10;1.30;;;;;;;21.70;62.44;102040.11;107129;1254;25366;-60
2023/10/30 02:39:34;;;;;;;2.20;1.30;;;;;;;21.71;62.43;102043.06;107235;1267;25485;-58
2023/10/30 02:42:01;;;;;;;3.60;1.70;;;;;;;21.71;62.36;102045.89;107211;1267;25385;-60
2023/10/30 02:44:29;;;;;;;3.60;1.40;;;;;;;21.71;62.30;102048.34;107127;1254;25366;-60
2023/10/30 02:46:56;;;;;;;3.40;1.40;;;;;;;21.72;62.30;102048.11;106828;1267;24232;-61
2023/10/30 02:49:25;;;;;;;2.70;1.20;;;;;;;21.70;62.15;102047.33;106758;1258;538230;-58
2023/10/30 02:51:52;;;;;;;2.90;1.40;;;;;;;21.69;61.79;102046.85;107167;1251;22771;-60
2023/10/30 02:54:19;;;;;;;3.10;1.50;;;;;;;21.67;61.35;102045.88;107149;1251;25385;-58
2023/10/30 02:56:46;;;;;;;2.30;1.50;;;;;;;21.63;60.84;102044.83;107175;1254;23891;-59
2023/10/30 02:59:13;;;;;;;3.50;1.40;;;;;;;21.58;60.40;102045.41;107185;1255;25366;-58
2023/10/30 03:01:41;;;;;;;5.70;1.80;;;;;;;21.52;60.09;102043.44;107102;1265;25388;-60
2023/10/30 03:04:12;;;;;;;3.20;1.60;;;;;;;21.46;59.70;102045.99;107174;1267;25391;-58
2023/10/30 03:06:40;;;;;;;1.90;1.50;;;;;;;21.42;59.72;102046.91;107150;1266;25355;-58
2023/10/30 03:09:08;;;;;;;3.50;1.60;;;;;;;21.37;59.77;102044.34;107194;1251;25486;-60
2023/10/30 03:11:36;;;;;;;3.80;1.60;;;;;;;21.32;59.88;102045.27;106870;1257;22540;-60
2023/10/30 03:14:04;;;;;;;1.90;1.70;;;;;;;21.29;59.94;102042.95;107138;1258;25337;-58
2023/10/30 03:16:31;;;;;;;2.50;1.40;;;;;;;21.25;59.93;102044.01;107165;1267;25376;-60
2023/10/30 03:18:58;;;;;;;3.40;1.50;;;;;;;21.21;59.93;102043.27;107172;1251;25376;-58
2023/10/30 03:21:26;;;;;;;2.40;1.70;;;;;;;21.18;60.04;102047.30;107073;1253;25351;-59
2023/10/30 03:23:53;;;;;;;4.80;1.70;;;;;;;21.16;60.23;102046.69;107142;1251;25361;-59
2023/10/30 03:26:20;;;;;;;3.20;1.30;;;;;;;21.15;60.64;102044.81;107037;1256;24390;-59
2023/10/30 03:28:46;;;;;;;2.40;1.30;;;;;;;21.16;60.98;102051.11;107103;1255;25524;-62
2023/10/30 03:31:14;;;;;;;5.30;1.40;;;;;;;21.20;61.51;102051.10;107102;1251;25341;-59
2023/10/30 03:33:41;;;;;;;5.60;1.60;;;;;;;21.26;61.99;102048.38;107118;1267;25412;-59
2023/10/30 03:36:08;;;;;;;2.40;1.30;;;;;;;21.31;62.32;102043.52;107212;1254;25354;-61
2023/10/30 03:38:35;;;;;;;1.90;1.40;;;;;;;21.36;62.67;102040.65;107213;1267;22520;-60
2023/10/30 03:41:03;;;;;;;5.30;1.80;;;;;;;21.41;62.81;102039.34;107149;1251;25347;-60
2023/10/30 03:43:30;;;;;;;3.80;1.20;;;;;;;21.46;63.00;102039.13;107108;1254;25300;-60
2023/10/30 03:45:57;;;;;;;3.60;1.40;;;;;;;21.50;63.11;102033.62;106852;1254;25488;-63
2023/10/30 03:48:24;;;;;;;4.10;1.60;;;;;;;21.56;63.22;102032.65;106891;1266;25376;-59
2023/10/30 03:50:51;;;;;;;2.10;1.50;;;;;;;21.60;63.29;102031.20;107105;1251;25420;-60
2023/10/30 03:53:18;;;;;;;2.10;1.50;;;;;;;21.64;63.32;102030.14;107153;1254;25351;-62
2023/10/30 03:55:45;;;;;;;4.00;1.70;;;;;;;21.67;63.31;102025.90;107147;1264;25363;-62
2023/10/30 03:58:12;;;;;;;4.40;1.50;;;;;;;21.71;63.36;102028.59;106773;1272;25474;-58
2023/10/30 04:00:39;;;;;;;4.20;1.40;;;;;;;21.74;63.40;102027.86;107030;1257;25365;-59
2023/10/30 04:03:07;;;;;;;4.30;1.60;;;;;;;21.71;63.49;102032.62;107086;1263;25408;-59
2023/10/30 04:05:34;;;;;;;5.10;1.70;;;;;;;21.74;63.45;102024.55;107017;1254;22537;-59
2023/10/30 04:08:01;;;;;;;3.90;1.60;;;;;;;21.81;63.29;102022.44;106835;1260;25448;-64
2023/10/30 04:10:28;;;;;;;3.80;1.60;;;;;;;21.83;63.17;102022.34;107178;1257;25481;-62
2023/10/30 04:12:55;;;;;;;2.20;1.30;;;;;;;21.86;63.17;102024.34;107223;1254;24207;-59
2023/10/30 04:15:22;;;;;;;3.50;1.80;;;;;;;21.88;63.09;102025.98;106911;1257;25361;-61
2023/10/30 04:17:50;;;;;;;3.30;1.20;;;;;;;21.91;63.01;102028.14;106789;1267;25337;-58
2023/10/30 04:20:17;;;;;;;2.30;1.30;;;;;;;21.94;62.92;102029.42;107071;1251;25338;-62
2023/10/30 04:22:44;;;;;;;2.60;1.40;;;;;;;22.05;62.49;102031.85;107127;1250;25288;-65
2023/10/30 04:25:12;;;;;;;3.70;1.10;;;;;;;22.14;62.18;102031.61;107082;1254;25376;-63
2023/10/30 04:27:38;;;;;;;2.50;1.20;;;;;;;22.09;62.30;102034.48;106863;1254;22644;-59
2023/10/30 04:30:07;;;;;;;3.20;1.10;;;;;;;22.04;62.38;102041.29;107132;1264;25365;-59
2023/10/30 04:32:34;;;;;;;4.70;1.30;;;;;;;22.07;62.33;102043.45;106408;1265;22520;-58
2023/10/30 04:35:01;;;;;;;1.80;1.30;;;;;;;22.20;61.85;102043.67;107038;1251;25421;-60
2023/10/30 04:37:28;;;;;;;4.50;1.50;;;;;;;22.25;61.77;102047.31;106702;1260;25344;-58
2023/10/30 04:39:55;;;;;;;4.30;1.40;;;;;;;22.27;61.73;102051.95;106842;1270;25334;-58
2023/10/30 04:42:22;;;;;;;2.90;1.20;;;;;;;22.30;61.57;102052.19;107187;1257;25385;-58
2023/10/30 04:44:49;;;;;;;2.30;1.20;;;;;;;22.32;61.51;102060.21;107192;1254;23911;-58
2023/10/30 04:47:19;;;;;;;4.80;1.50;;;;;;;22.34;61.33;102062.44;106748;1259;24184;-60
2023/10/30 04:49:46;;;;;;;2.10;1.30;;;;;;;22.35;61.18;102061.82;107010;1252;25347;-58
2023/10/30 04:52:13;;;;;;;3.60;1.30;;;;;;;22.36;61.20;102061.92;106996;1254;25337;-59
2023/10/30 04:54:40;;;;;;;3.60;1.10;;;;;;;22.38;61.10;102065.72;107002;1253;24021;-59
2023/10/30 04:57:07;;;;;;;4.30;1.20;;;;;;;22.41;61.03;102064.15;107653;1262;25431;-61
2023/10/30 04:59:34;;;;;;;1.90;1.20;;;;;;;22.44;60.85;102063.82;107508;1254;25369;-58
2023/10/30 05:02:01;;;;;;;3.70;1.40;;;;;;;22.46;60.92;102066.19;107017;1267;25488;-63
2023/10/30 05:04:29;;;;;;;4.70;1.00;;;;;;;22.46;60.97;102071.00;107291;1256;22644;-62
2023/10/30 05:06:56;;;;;;;4.70;1.30;;;;;;;22.47;60.83;102073.93;107379;1256;23868;-60
2023/10/30 05:09:23;;;;;;;4.40;1.70;;;;;;;22.49;60.80;102076.32;107223;1255;22633;-59
2023/10/30 05:11:50;;;;;;;4.20;1.30;;;;;;;22.50;60.78;102078.88;106938;1264;24048;-59
2023/10/30 05:14:17;;;;;;;2.90;1.10;;;;;;;22.52;60.77;102082.32;107065;1254;23889;-64
2023/10/30 05:16:44;;;;;;;5.20;1.30;;;;;;;22.55;60.63;102079.19;107231;1257;23890;-61
2023/10/30 05:19:12;;;;;;;3.30;1.00;;;;;;;22.58;60.57;102079.59;107295;1259;23888;-65
2023/10/30 05:21:39;;;;;;;3.70;1.40;;;;;;;22.60;60.44;102086.58;107533;1250;25459;-61
2023/10/30 05:24:06;;;;;;;4.20;1.40;;;;;;;22.62;60.48;102091.05;107313;1257;25351;-61
2023/10/30 05:26:33;;;;;;;3.50;1.20;;;;;;;22.64;60.37;102095.69;107145;1266;25338;-60
2023/10/30 05:29:00;;;;;;;2.30;1.40;;;;;;;22.67;60.39;102094.36;107199;1258;25357;-61
2023/10/30 05:31:27;;;;;;;5.50;1.40;;;;;;;22.70;60.28;102097.94;107163;1263;25453;-61
2023/10/30 05:33:55;;;;;;;3.10;1.10;;;;;;;22.72;60.22;102103.32;106915;1257;25345;-63
2023/10/30 05:36:22;;;;;;;3.60;1.40;;;;;;;22.75;60.25;102106.35;107072;1254;25494;-64
2023/10/30 05:38:49;;;;;;;3.60;1.00;;;;;;;22.78;60.27;102107.06;106895;1255;23884;-60
2023/10/30 05:41:16;;;;;;;5.60;1.50;;;;;;;22.80;60.26;102105.70;106680;1254;25360;-60
2023/10/30 05:43:43;;;;;;;3.40;1.30;;;;;;;22.83;60.02;102106.78;107050;1254;25337;-64
2023/10/30 05:46:09;;;;;;;3.20;1.50;;;;;;;22.88;60.04;102107.27;107161;1264;25635;-60
2023/10/30 05:48:37;;;;;;;2.70;0.90;;;;;;;22.82;60.33;102110.73;107184;1256;25488;-62
2023/10/30 05:51:04;;;;;;;4.70;1.00;;;;;;;22.83;60.33;102106.98;107192;1254;25357;-61
2023/10/30 05:53:31;;;;;;;3.10;1.30;;;;;;;22.87;60.22;102112.27;106768;1266;25388;-61
2023/10/30 05:55:58;;;;;;;1.80;1.00;;;;;;;22.91;59.98;102112.91;107019;1258;22575;-60
2023/10/30 05:58:25;;;;;;;2.90;1.30;;;;;;;22.95;60.01;102112.34;107112;1254;25371;-60
2023/10/30 06:00:52;;;;;;;3.00;1.30;;;;;;;22.98;59.91;102112.54;106967;1260;25392;-62
2023/10/30 06:03:19;;;;;;;3.80;1.20;;;;;;;23.01;59.75;102111.84;106998;1267;25338;-59
2023/10/30 06:05:47;;;;;;;3.60;1.50;;;;;;;23.05;59.66;102113.09;107137;1251;25373;-61
2023/10/30 06:08:14;;;;;;;4.40;1.40;;;;;;;23.07;59.62;102112.97;107166;1254;25562;-60
2023/10/30 06:10:41;;;;;;;3.70;1.40;;;;;;;23.10;59.64;102113.70;107177;1253;25414;-61
2023/10/30 06:13:09;;;;;;;3.00;1.30;;;;;;;23.14;59.71;102109.25;107154;1253;25521;-62
2023/10/30 06:15:36;;;;;;;4.10;1.60;;;;;;;23.18;59.50;102111.34;107205;1254;25382;-59
2023/10/30 06:18:03;;;;;;;5.00;1.00;;;;;;;23.21;59.40;102109.55;107111;1253;25392;-59
2023/10/30 06:20:31;;;;;;;2.20;1.20;;;;;;;23.26;59.35;102108.06;107242;1250;25365;-62
2023/10/30 06:22:59;;;;;;;3.20;1.10;;;;;;;23.30;59.22;102102.88;107046;1252;25917;-61
2023/10/30 06:25:26;;;;;;;4.70;1.30;;;;;;;23.38;59.03;102102.64;106962;1264;22570;-62
2023/10/30 06:27:53;;;;;;;3.80;1.10;;;;;;;23.52;58.70;102099.94;106946;1251;25461;-59
2023/10/30 06:30:20;;;;;;;3.60;1.20;;;;;;;23.59;58.50;102096.91;107011;1257;25468;-60
2023/10/30 06:32:47;;;;;;;3.10;1.20;;;;;;;23.64;58.40;102096.48;106638;1258;25593;-59
2023/10/30 06:35:15;;;;;;;3.40;1.20;;;;;;;23.65;58.22;102096.89;107063;1255;24194;-60
2023/10/30 06:37:42;;;;;;;4.00;1.50;;;;;;;23.56;58.47;102095.98;107040;1263;25333;-61
2023/10/30 06:40:09;;;;;;;5.40;1.20;;;;;;;23.59;58.53;102094.98;106948;1252;25376;-59
2023/10/30 06:42:36;;;;;;;2.30;1.10;;;;;;;23.61;58.35;102096.24;106935;1257;25497;-62
2023/10/30 06:45:04;;;;;;;5.60;1.40;;;;;;;23.66;57.96;102097.20;107180;1256;25402;-63
2023/10/30 06:47:33;;;;;;;2.90;1.10;;;;;;;23.68;57.86;102094.84;106834;1254;22536;-61
2023/10/30 06:50:00;;;;;;;3.80;1.40;;;;;;;23.69;57.80;102101.82;107199;1253;25351;-66
2023/10/30 06:52:27;;;;;;;4.10;1.40;;;;;;;23.72;57.82;102104.33;107101;1258;24187;-62
2023/10/30 06:54:54;;;;;;;2.10;1.10;;;;;;;23.74;57.65;102102.22;107135;1262;25369;-66
2023/10/30 06:57:21;;;;;;;3.00;1.20;;;;;;;23.76;57.45;102103.71;107028;1266;24348;-60
2023/10/30 06:59:52;;;;;;;3.20;1.10;;;;;;;23.80;57.27;102105.30;107186;1254;25319;-60
2023/10/30 07:02:19;;;;;;;3.80;1.10;;;;;;;23.78;57.11;102097.41;107102;1254;25485;-60
2023/10/30 07:04:46;;;;;;;2.20;1.00;;;;;;;23.79;56.99;102096.14;107198;1263;25344;-62
2023/10/30 07:07:13;;;;;;;3.10;1.10;;;;;;;23.79;56.79;102096.30;107124;1266;22568;-60
2023/10/30 07:09:41;;;;;;;3.50;1.20;;;;;;;23.79;56.72;102100.00;107158;1266;25403;-61
2023/10/30 07:12:09;;;;;;;3.80;1.10;;;;;;;23.80;56.68;102097.15;106878;1266;25418;-67
2023/10/30 07:14:37;;;;;;;2.80;1.00;;;;;;;23.80;56.66;102093.94;107245;1265;25397;-60
2023/10/30 07:17:04;;;;;;;4.70;1.10;;;;;;;23.81;56.77;102088.20;107164;1254;25469;-62
2023/10/30 07:19:31;;;;;;;2.70;1.00;;;;;;;23.82;56.62;102089.02;107135;1253;25278;-60
2023/10/30 07:21:58;;;;;;;3.10;1.10;;;;;;;23.84;56.43;102087.69;107172;1266;25488;-59
2023/10/30 07:24:26;;;;;;;5.00;1.00;;;;;;;23.86;56.28;102087.42;107189;1253;25379;-62
2023/10/30 07:26:53;;;;;;;2.80;1.00;;;;;;;23.89;56.13;102089.55;107176;1253;22530;-60
2023/10/30 07:29:20;;;;;;;3.40;1.20;;;;;;;23.92;56.06;102092.76;107149;1265;25329;-58
2023/10/30 07:31:47;;;;;;;2.40;0.90;;;;;;;23.94;56.09;102091.39;106889;1257;25348;-62
2023/10/30 07:34:14;;;;;;;3.30;1.50;;;;;;;23.97;55.99;102095.29;107161;1251;25346;-59
2023/10/30 07:36:42;;;;;;;2.70;1.40;;;;;;;24.00;55.94;102097.77;107218;1253;25353;-61
2023/10/30 07:39:09;;;;;;;3.20;1.20;;;;;;;24.02;56.11;102098.35;106832;1260;25425;-59
2023/10/30 07:41:38;;;;;;;1.80;0.90;;;;;;;24.05;55.95;102091.12;106921;1254;22542;-60
2023/10/30 07:44:07;;;;;;;2.10;0.80;;;;;;;24.09;55.85;102093.02;107076;1262;25337;-60
2023/10/30 07:46:35;;;;;;;3.80;1.50;;;;;;;24.10;55.87;102092.96;107133;1261;22588;-59
2023/10/30 07:49:04;;;;;;;1.20;0.70;;;;;;;24.13;55.74;102093.33;106842;1250;25428;-63
2023/10/30 07:51:31;;;;;;;2.20;1.20;;;;;;;24.16;55.69;102092.94;107166;1251;22758;-63
2023/10/30 07:53:59;;;;;;;4.10;1.60;;;;;;;24.19;55.67;102092.09;107196;1252;25366;-67
2023/10/30 07:56:26;;;;;;;3.30;1.40;;;;;;;24.22;55.52;102095.45;107021;1256;25359;-60
2023/10/30 07:58:53;;;;;;;2.60;1.30;;;;;;;24.25;55.57;102093.86;106922;1259;25345;-60
2023/10/30 08:01:20;;;;;;;2.60;1.00;;;;;;;24.29;55.44;102092.42;107223;1253;24401;-60
2023/10/30 08:03:47;;;;;;;2.10;1.30;;;;;;;24.32;55.47;102092.27;107096;1250;22746;-62
2023/10/30 08:06:14;;;;;;;2.60;0.80;;;;;;;24.35;55.38;102092.62;107169;1259;22590;-59
2023/10/30 08:08:41;;;;;;;2.70;1.10;;;;;;;24.37;55.29;102088.20;107078;1262;25351;-63
2023/10/30 08:11:09;;;;;;;3.60;1.40;;;;;;;24.40;55.12;102087.89;106852;1256;25478;-64
2023/10/30 08:13:37;;;;;;;1.80;0.80;;;;;;;24.43;55.02;102091.44;107064;1257;25493;-65
2023/10/30 08:16:05;;;;;;;3.60;1.10;;;;;;;24.46;55.00;102091.77;107169;1255;25376;-58
2023/10/30 08:18:32;;;;;;;2.90;0.90;;;;;;;24.50;54.88;102094.02;106507;1257;22533;-61
2023/10/30 08:21:00;;;;;;;2.50;1.00;;;;;;;24.53;54.89;102095.60;107066;1269;25353;-59
2023/10/30 08:23:36;;;;;;;1.30;1.20;;;;;;;24.57;54.74;102097.31;107012;1267;25412;-63
2023/10/30 08:26:05;;;;;;;4.00;1.20;;;;;;;24.59;54.63;102097.88;107155;1266;22659;-63
2023/10/30 08:28:33;;;;;;;2.30;0.90;;;;;;;24.63;54.67;102099.10;107128;1253;24207;-58
2023/10/30 08:31:00;;;;;;;2.70;1.10;;;;;;;24.66;54.54;102097.65;106881;1266;22534;-59
2023/10/30 08:33:27;;;;;;;1.60;1.00;;;;;;;24.69;54.54;102100.70;107105;1251;25297;-61
2023/10/30 08:35:54;;;;;;;2.70;1.20;;;;;;;24.71;54.41;102097.17;106971;1256;25497;-66
2023/10/30 08:38:21;;;;;;;2.10;0.90;;;;;;;24.74;54.52;102096.48;106913;1250;25348;-61
2023/10/30 08:40:48;;;;;;;1.80;0.90;;;;;;;24.76;54.48;102094.74;107076;1254;25338;-65
2023/10/30 08:43:15;;;;;;;2.60;0.90;;;;;;;24.80;54.10;102094.02;107075;1266;25227;-60
2023/10/30 08:45:42;;;;;;;3.30;1.40;;;;;;;24.78;54.30;102095.38;107130;1253;25357;-62
2023/10/30 08:48:12;;;;;;;1.60;0.90;;;;;;;24.75;54.35;102099.45;107033;1266;25522;-61
2023/10/30 08:50:44;;;;;;;1.80;0.90;;;;;;;24.78;54.17;102094.67;106907;1266;25950;-60
2023/10/30 08:53:11;;;;;;;2.10;0.90;;;;;;;24.81;54.07;102094.50;106940;1249;22666;-63
2023/10/30 08:55:40;;;;;;;1.50;0.70;;;;;;;24.84;53.84;102094.30;106933;1262;22529;-59
2023/10/30 08:58:07;;;;;;;2.50;0.90;;;;;;;24.87;53.63;102089.30;106631;1271;25369;-61
2023/10/30 09:00:35;;;;;;;2.80;1.40;;;;;;;24.90;53.45;102088.42;106609;1267;25377;-60
2023/10/30 09:03:03;;;;;;;4.10;1.00;;;;;;;24.93;53.10;102083.44;107052;1266;25412;-64
2023/10/30 09:05:30;;;;;;;2.50;1.10;;;;;;;24.96;53.09;102077.92;107072;1252;25456;-63
2023/10/30 09:07:57;;;;;;;2.60;1.00;;;;;;;24.99;52.90;102077.94;107194;1266;22748;-60
2023/10/30 09:10:28;;;;;;;1.50;0.90;;;;;;;25.00;52.68;102073.76;107178;1256;25370;-59
2023/10/30 09:12:55;;;;;;;2.40;1.20;;;;;;;25.02;52.66;102074.53;107219;1251;24059;-60
2023/10/30 09:15:23;;;;;;;2.20;0.90;;;;;;;25.03;52.82;102072.33;107147;1266;25376;-61
2023/10/30 09:17:52;;;;;;;3.00;1.00;;;;;;;25.05;52.67;102069.20;107206;1254;25504;-61
2023/10/30 09:20:20;;;;;;;3.10;1.10;;;;;;;25.07;52.33;102068.91;107235;1254;23264;-59
2023/10/30 09:22:47;;;;;;;4.40;1.00;;;;;;;25.10;52.17;102067.83;106930;1253;25363;-60
2023/10/30 09:25:14;;;;;;;3.20;1.00;;;;;;;25.11;52.30;102069.71;106969;1254;25400;-59
2023/10/30 09:27:43;;;;;;;2.60;1.10;;;;;;;25.12;52.26;102066.80;106952;1266;25436;-61
2023/10/30 09:30:11;;;;;;;1.60;0.90;;;;;;;25.15;52.04;102064.01;107118;1269;22781;-59
2023/10/30 09:32:38;;;;;;;1.30;0.80;;;;;;;25.17;51.83;102065.25;107193;1269;22541;-60
2023/10/30 09:35:06;;;;;;;1.40;0.80;;;;;;;25.19;51.71;102060.52;107152;1253;22650;-59
2023/10/30 09:37:33;;;;;;;1.50;0.70;;;;;;;25.25;51.53;102060.33;107096;1266;25737;-59
2023/10/30 09:40:02;;;;;;;1.70;0.70;;;;;;;25.37;51.05;102061.70;107031;1266;25401;-59
2023/10/30 09:42:33;;;;;;;1.70;0.90;;;;;;;25.40;50.77;102058.67;107190;1253;25434;-59
2023/10/30 09:45:00;;;;;;;1.70;0.90;;;;;;;25.43;50.43;102058.70;107185;1254;25446;-59
2023/10/30 09:47:27;;;;;;;1.20;0.80;;;;;;;25.45;50.55;102055.02;107138;1255;25443;-62
2023/10/30 09:49:54;;;;;;;1.80;1.00;;;;;;;25.49;50.47;102059.17;107102;1267;25440;-61
2023/10/30 09:52:21;;;;;;;1.60;0.80;;;;;;;25.49;50.25;102054.70;107157;1259;22749;-60
2023/10/30 09:54:49;;;;;;;2.60;1.20;;;;;;;25.51;50.10;102052.46;106871;1270;25413;-60
2023/10/30 09:57:16;;;;;;;1.70;1.30;;;;;;;25.52;50.00;102053.10;106951;1269;22775;-61
2023/10/30 09:59:44;;;;;;;2.70;0.90;;;;;;;25.53;50.00;102053.58;106979;1269;25366;-60
2023/10/30 10:02:10;;;;;;;3.70;0.80;;;;;;;25.54;49.84;102052.08;106908;1257;23932;-59
2023/10/30 10:04:38;;;;;;;3.90;1.20;;;;;;;25.56;49.75;102051.81;107026;1269;25490;-59
2023/10/30 10:07:05;;;;;;;1.50;0.90;;;;;;;25.57;49.83;102050.81;106974;1269;25344;-60
2023/10/30 10:09:32;;;;;;;2.60;1.10;;;;;;;25.59;49.54;102051.98;106742;1270;25485;-61
2023/10/30 10:11:59;;;;;;;3.20;0.90;;;;;;;25.59;49.54;102048.55;106688;1270;25505;-59
2023/10/30 10:14:30;;;;;;;1.60;0.90;;;;;;;25.60;49.46;102048.52;106748;1253;25577;-63
2023/10/30 10:16:58;;;;;;;1.80;0.70;;;;;;;25.61;49.37;102048.63;106892;1272;22527;-61
2023/10/30 10:19:27;;;;;;;1.60;0.80;;;;;;;25.61;49.27;102040.27;106856;1270;22599;-65
2023/10/30 10:21:54;;;;;;;2.80;1.00;;;;;;;25.61;49.17;102039.00;106902;1268;22646;-61
2023/10/30 10:24:32;;;;;;;2.70;0.60;;;;;;;25.61;49.32;102036.38;106736;1262;23914;-60
2023/10/30 10:27:04;;;;;;;2.60;0.70;;;;;;;25.60;49.23;102035.35;106761;1272;23749;-59
2023/10/30 10:29:32;;;;;;;2.40;0.80;;;;;;;25.59;49.07;102029.56;106509;1271;25501;-60
2023/10/30 10:31:59;;;;;;;2.40;1.00;;;;;;;25.58;48.99;102021.67;107041;1266;23362;-59
2023/10/30 10:34:32;;;;;;;1.70;0.80;;;;;;;25.57;49.10;102026.52;106922;1268;25402;-59
2023/10/30 10:37:01;;;;;;;3.80;1.00;;;;;;;25.57;49.15;102024.01;106671;1258;22533;-59
2023/10/30 10:39:53;;;;;;;1.60;1.10;;;;;;;25.59;49.04;102020.48;107042;1265;25398;-59
2023/10/30 10:42:22;;;;;;;2.50;0.80;;;;;;;25.61;49.01;102019.34;106267;1279;22671;-58
2023/10/30 10:44:51;;;;;;;2.40;0.70;;;;;;;25.63;49.02;102017.26;106114;1274;24816;-58
2023/10/30 10:47:19;;;;;;;3.20;1.00;;;;;;;25.65;49.09;102015.67;106229;1274;24232;-58
2023/10/30 10:49:46;;;;;;;1.80;1.00;;;;;;;25.66;49.02;102010.04;105831;1274;1003088;-63
2023/10/30 10:52:16;;;;;;;1.80;1.10;;;;;;;25.67;48.93;102013.71;106598;1276;25331;-58
2023/10/30 10:54:57;;;;;;;3.30;1.00;;;;;;;25.69;49.10;102006.84;106339;1272;25502;-59
2023/10/30 10:57:24;;;;;;;5.70;1.10;;;;;;;25.71;49.05;102007.10;106235;1277;24351;-58
2023/10/30 10:59:57;;;;;;;2.40;0.90;;;;;;;25.72;49.07;102002.22;106229;1275;25362;-60
2023/10/30 11:02:31;;;;;;;6.60;1.20;;;;;;;25.73;49.22;101999.11;106242;1274;22540;-60
2023/10/30 11:04:58;;;;;;;3.60;1.10;;;;;;;25.74;49.22;101992.09;106257;1259;25536;-58
2023/10/30 11:08:12;;;;;;;1.80;0.90;;;;;;;25.75;49.19;101993.10;106501;1274;25365;-59
2023/10/30 11:10:42;;;;;;;2.10;1.20;;;;;;;25.77;49.01;101987.83;105654;1284;25378;-61
2023/10/30 11:13:39;;;;;;;5.90;1.10;;;;;;;25.78;49.19;101984.00;105439;1276;25447;-67
2023/10/30 11:16:34;;;;;;;4.00;1.20;;;;;;;25.79;49.02;101978.99;105721;1273;22594;-62
2023/10/30 11:19:01;;;;;;;3.30;0.90;;;;;;;25.80;49.02;101977.90;105693;1286;25357;-60
2023/10/30 11:21:29;;;;;;;5.00;1.20;;;;;;;25.78;48.96;101969.77;105914;1280;25468;-57